Georgetown, IN (47122)

12:45 PM EST on January 26, 2015 (GMT -0500)
Floyd County Road Department | Change Station
CLOSE
Current Station
Personal Weather Station
Location: Georgetown, IN
Elevation: 726 ft
Nearby Weather Stations
Active Advisory: Special Statement Active Notice: Public Information Statement

Elev 726 ft 38.29 °N, 85.93 °W | Updated 45 seconds ago

Overcast
Overcast
29.3 °F
Feels Like 23 °F
N
6.0
Wind Variable Wind from WSW
Gusts 10.0 mph

Today
High -- | Low -- °F
--% Chance of Precip.
Yesterday
High -- | Low -- °F
Precip. -- in
7:53 AM 5:59 PM
Waxing Crescent, 45% visible
Pressure 29.99 in
Visibility 10.0 miles
Clouds Overcast 1900 ft
Windchill 23 °F
Dew Point 24 °F
Humidity 80%
Rainfall 0.00 in
Snow Depth Not available.
UV 1.0 out of 12
Pollen .10 out of 12
Air Quality Not available.
Flu Activity Not available.
METAR KSDF 261656Z 30009KT 10SM OVC019 M01/M06 A2998 RMK AO2 SLP156 T10111056

More Conditions Fewer Conditions

Pressure 29.99 in
Visibility 10.0 miles
Clouds Overcast 1900 ft
Windchill 23 °F
Dew Point 24 °F
Humidity 80%
Rainfall 0.00 in
Snow Depth Not available.
UV 1.0 out of 12
Pollen .10 out of 12
Air Quality Not available.
Flu Activity Not available.
METAR KSDF 261656Z 30009KT 10SM OVC019 M01/M06 A2998 RMK AO2 SLP156 T10111056

More Conditions Fewer Conditions

10-Day Weather Forecast

Almanac

Astronomy

Jan. 26, 2015 Rise Set
Actual Time
Civil Twilight
Nautical Twilight
Astronomical Twilight
Moon
Length of Visible Light
Length of Day
Tomorrow will be .
, % of the Moon is Illuminated

Today's Extremes

State Highs State Lows

Community

WunderPhotos

Upload Photos

1,790,301 photos uploaded!

WunderBlogs® & News

Nearby

Air Quality

  Air Quality AQ Index Pollutant
Not available.

Snow Depth

Station Depth Elevation

Earthquake Activity

City Distance Mag. Time & Date
Minimum magnitude displayed is 2.5.

Coastal Water Temperatures

Place Temperature

Nearby Weather Stations